Time;durP1;ratioP1;P1;durP2;ratioP2;P2;SDS_P1;SDS_P2;PMS_P1;PMS_P2;Temp;Humidity;BMP_temperature;BMP_pressure;BME280_temperature;BME280_humidity;BME280_pressure;Samples;Min_cycle;Max_cycle;Signal;HPM_P1;HPM_P2
2023/02/13 00:00:44;;;;;;;38.95;18.88;;;;;;;10.73;57.16;103668.53;4802002;29;124231;-71
2023/02/13 00:03:11;;;;;;;41.55;18.88;;;;;;;10.73;57.29;103660.59;4807811;29;112885;-71
2023/02/13 00:05:38;;;;;;;40.78;19.00;;;;;;;10.74;57.44;103654.38;4808463;29;113629;-71
2023/02/13 00:08:06;;;;;;;36.45;18.58;;;;;;;10.75;57.32;103657.03;4807493;29;123109;-71
2023/02/13 00:10:33;;;;;;;38.92;19.98;;;;;;;10.76;57.46;103655.28;4808772;29;124016;-71
2023/02/13 00:13:00;;;;;;;39.67;19.38;;;;;;;10.75;57.58;103650.84;4802786;29;114728;-71
2023/02/13 00:15:27;;;;;;;36.95;19.27;;;;;;;10.75;57.40;103658.81;4804231;29;114205;-78
2023/02/13 00:17:55;;;;;;;38.65;18.00;;;;;;;10.76;57.50;103655.28;4805857;29;124173;-71
2023/02/13 00:20:22;;;;;;;36.17;17.77;;;;;;;10.76;57.41;103653.50;4810522;29;124257;-71
2023/02/13 00:22:49;;;;;;;38.80;19.30;;;;;;;10.77;57.24;103659.69;4807857;29;114183;-71
2023/02/13 00:25:17;;;;;;;39.45;18.77;;;;;;;10.78;57.62;103661.47;4819923;29;113838;-70
2023/02/13 00:27:44;;;;;;;38.55;18.58;;;;;;;10.78;57.41;103658.81;4801049;29;124805;-71
2023/02/13 00:30:12;;;;;;;39.47;20.10;;;;;;;10.78;57.49;103645.56;4802673;29;123591;-71
2023/02/13 00:32:39;;;;;;;42.05;20.05;;;;;;;10.77;57.49;103649.09;4805590;29;114381;-71
2023/02/13 00:35:06;;;;;;;40.90;19.58;;;;;;;10.76;57.39;103642.03;4810980;29;114043;-71
2023/02/13 00:37:34;;;;;;;41.65;19.60;;;;;;;10.76;57.31;103652.66;4801360;29;123858;-71
2023/02/13 00:40:01;;;;;;;40.28;19.42;;;;;;;10.74;57.25;103649.06;4820534;29;123487;-71
2023/02/13 00:42:28;;;;;;;39.50;17.63;;;;;;;10.74;57.45;103649.06;4815015;29;113727;-71
2023/02/13 00:44:55;;;;;;;40.33;18.52;;;;;;;10.75;57.66;103648.22;4805864;29;114239;-71
2023/02/13 00:47:23;;;;;;;38.17;18.27;;;;;;;10.76;57.41;103652.66;4803849;29;124334;-71
2023/02/13 00:49:50;;;;;;;35.75;18.42;;;;;;;10.75;57.54;103646.44;4807200;29;123929;-71
2023/02/13 00:52:17;;;;;;;40.38;19.67;;;;;;;10.75;57.64;103641.13;4826534;29;114173;-71
2023/02/13 00:54:46;;;;;;;36.10;16.05;;;;;;;10.75;57.55;103645.56;4819302;29;113138;-73
2023/02/13 00:57:13;;;;;;;41.42;18.88;;;;;;;10.75;57.47;103651.72;4816316;29;122188;-71
2023/02/13 00:59:42;;;;;;;42.00;19.95;;;;;;;10.75;57.77;103650.84;4811985;29;96778;-71
2023/02/13 01:02:10;;;;;;;41.17;18.88;;;;;;;10.74;57.49;103643.78;4806005;29;114216;-71
2023/02/13 01:04:38;;;;;;;41.30;19.20;;;;;;;10.75;57.54;103650.84;4822866;29;113565;-71
2023/02/13 01:07:06;;;;;;;40.72;20.30;;;;;;;10.74;57.66;103647.34;4816348;29;123130;-71
2023/02/13 01:09:34;;;;;;;40.78;19.02;;;;;;;10.74;57.66;103646.44;4810582;29;124230;-72
2023/02/13 01:12:01;;;;;;;38.08;18.63;;;;;;;10.74;57.63;103654.38;4801944;29;114411;-72
2023/02/13 01:14:29;;;;;;;39.90;19.35;;;;;;;10.73;57.67;103648.19;4821813;29;113685;-72
2023/02/13 01:16:57;;;;;;;40.13;19.10;;;;;;;10.73;57.79;103647.31;4804946;29;125929;-72
2023/02/13 01:19:24;;;;;;;38.35;19.02;;;;;;;10.73;57.66;103647.31;4812577;29;123865;-74
2023/02/13 01:21:52;;;;;;;41.55;19.38;;;;;;;10.73;57.94;103652.63;4810437;29;115532;-72
2023/02/13 01:24:19;;;;;;;39.08;19.15;;;;;;;10.73;57.79;103652.63;4807825;29;114425;-71
2023/02/13 01:26:46;;;;;;;41.83;19.67;;;;;;;10.71;57.89;103645.53;4809163;29;124181;-72
2023/02/13 01:29:13;;;;;;;41.05;18.70;;;;;;;10.72;57.98;103649.09;4818510;29;123575;-75
2023/02/13 01:31:41;;;;;;;40.95;19.08;;;;;;;10.73;57.71;103647.31;4806239;29;114667;-72
2023/02/13 01:34:08;;;;;;;40.05;19.38;;;;;;;10.72;57.84;103651.75;4818298;29;113264;-72
2023/02/13 01:36:35;;;;;;;43.45;19.33;;;;;;;10.73;58.05;103648.19;4803917;29;124161;-72
2023/02/13 01:39:02;;;;;;;40.65;19.25;;;;;;;10.74;58.26;103646.44;4816857;29;124486;-72
2023/02/13 01:41:30;;;;;;;43.53;21.08;;;;;;;10.74;57.74;103646.44;4801101;29;115095;-73
2023/02/13 01:44:00;;;;;;;42.88;20.45;;;;;;;10.73;58.02;103652.63;4808981;29;114407;-73
2023/02/13 01:46:35;;;;;;;39.83;19.85;;;;;;;10.73;58.04;103642.03;4798571;29;123141;-73
2023/02/13 01:49:15;;;;;;;41.10;20.17;;;;;;;10.74;57.83;103643.78;4819064;29;123430;-73
2023/02/13 01:51:43;;;;;;;40.47;19.05;;;;;;;10.74;57.73;103649.06;4821862;29;114296;-74
2023/02/13 01:54:16;;;;;;;44.28;20.67;;;;;;;10.73;57.95;103648.19;4810731;29;114078;-72
2023/02/13 01:56:48;;;;;;;40.70;20.05;;;;;;;10.69;57.82;103642.03;4818051;29;123860;-73
2023/02/13 01:59:19;;;;;;;38.53;19.73;;;;;;;10.67;58.06;103641.13;4819941;29;122940;-75
2023/02/13 02:01:48;;;;;;;39.80;19.95;;;;;;;10.67;58.06;103643.78;4825648;29;113301;-74
2023/02/13 02:04:21;;;;;;;42.15;21.00;;;;;;;10.68;58.18;103634.06;4821700;29;113205;-72
2023/02/13 02:06:54;;;;;;;40.42;19.50;;;;;;;10.67;58.30;103633.19;4822435;29;123284;-72
2023/02/13 02:09:31;;;;;;;42.92;20.13;;;;;;;10.65;58.00;103632.31;4825002;29;126639;-72
2023/02/13 02:12:05;;;;;;;40.55;18.58;;;;;;;10.63;58.15;103626.13;4816481;29;113255;-72
2023/02/13 02:14:39;;;;;;;43.15;20.02;;;;;;;10.62;58.15;103627.00;4806105;29;114130;-72
2023/02/13 02:17:08;;;;;;;42.10;20.42;;;;;;;10.60;58.25;103623.47;4807088;29;123019;-72
2023/02/13 02:19:48;;;;;;;40.33;19.13;;;;;;;10.61;58.22;103625.25;4818326;29;122980;-73
2023/02/13 02:22:53;;;;;;;41.15;19.27;;;;;;;10.62;58.40;103619.03;4819036;29;113589;-72
2023/02/13 02:25:51;;;;;;;43.92;19.70;;;;;;;10.62;58.27;103618.16;4808765;29;113981;-72
2023/02/13 02:28:49;;;;;;;47.03;20.25;;;;;;;10.60;58.40;103619.94;4822409;29;123350;-72
2023/02/13 02:31:46;;;;;;;44.35;20.90;;;;;;;10.59;58.41;103624.38;4818136;29;123654;-73
2023/02/13 02:34:35;;;;;;;43.58;20.52;;;;;;;10.58;58.42;103627.00;4802708;29;114265;-73
2023/02/13 02:37:30;;;;;;;41.13;20.20;;;;;;;10.57;58.45;103620.84;4805404;29;113923;-73
2023/02/13 02:40:34;;;;;;;44.45;19.85;;;;;;;10.54;58.44;103615.53;4810958;29;123028;-75
2023/02/13 02:43:23;;;;;;;43.20;21.13;;;;;;;10.53;58.31;103619.06;4822190;29;123418;-72
2023/02/13 02:46:15;;;;;;;40.05;19.00;;;;;;;10.52;58.53;103614.66;4802175;29;113388;-73
2023/02/13 02:52:00;;;;;;;42.80;19.15;;;;;;;10.49;58.65;103617.28;4823072;29;123754;-73
2023/02/13 03:06:18;;;;;;;44.95;22.33;;;;;;;10.45;58.68;103616.44;4816568;29;124408;-72
2023/02/13 03:14:28;;;;;;;44.10;21.08;;;;;;;10.41;58.59;103621.72;4808221;29;124185;-72
2023/02/13 03:23:14;;;;;;;45.00;21.50;;;;;;;10.29;58.60;103612.84;4811240;29;114083;-72
2023/02/13 03:26:01;;;;;;;43.10;21.08;;;;;;;10.26;58.70;103614.59;4823822;29;123157;-72
2023/02/13 03:32:16;;;;;;;40.80;19.38;;;;;;;10.18;58.66;103617.25;4825719;29;113308;-72
2023/02/13 03:37:55;;;;;;;41.47;20.08;;;;;;;10.12;58.78;103617.25;4813981;29;124769;-72
2023/02/13 03:40:36;;;;;;;42.22;19.67;;;;;;;10.08;59.00;103610.19;4823446;29;122926;-72
2023/02/13 03:43:11;;;;;;;47.50;19.73;;;;;;;10.06;58.86;103611.94;4808083;29;114193;-73
2023/02/13 03:45:52;;;;;;;37.70;19.02;;;;;;;10.05;59.08;103615.47;4808888;29;113944;-73
2023/02/13 03:51:18;;;;;;;39.58;18.77;;;;;;;9.99;58.88;103620.75;4812673;29;123942;-72
2023/02/13 03:53:49;;;;;;;36.50;18.02;;;;;;;9.94;58.79;103624.28;4821051;29;113620;-72
2023/02/13 03:59:17;;;;;;;45.30;19.58;;;;;;;9.87;58.58;103616.28;4812114;29;124314;-71
2023/02/13 04:02:11;;;;;;;39.15;18.55;;;;;;;9.82;58.71;103626.00;4814432;29;124367;-71
2023/02/13 04:05:08;;;;;;;41.15;19.60;;;;;;;9.78;58.66;103627.75;4815704;29;115326;-71
2023/02/13 04:07:35;;;;;;;42.80;19.77;;;;;;;9.75;58.50;103622.44;4814746;29;114935;-71
2023/02/13 04:10:10;;;;;;;39.95;19.00;;;;;;;9.71;59.00;103615.38;4814230;29;123988;-71
2023/02/13 04:12:47;;;;;;;42.17;19.97;;;;;;;9.68;58.91;103612.69;4817540;29;124269;-72
2023/02/13 04:15:38;;;;;;;42.38;19.17;;;;;;;9.65;58.86;103623.28;4812151;29;114179;-71
2023/02/13 04:18:24;;;;;;;43.65;19.23;;;;;;;9.61;58.66;103618.88;4812977;29;114471;-72
2023/02/13 04:20:52;;;;;;;40.90;19.90;;;;;;;9.57;58.78;103622.38;4815759;29;122192;-71
2023/02/13 04:23:19;;;;;;;42.45;19.58;;;;;;;9.55;58.82;103620.63;4814667;29;124194;-71
2023/02/13 04:25:51;;;;;;;44.22;20.13;;;;;;;9.50;58.65;103627.63;4817008;29;114445;-71
2023/02/13 04:28:18;;;;;;;42.35;20.63;;;;;;;9.46;58.69;103615.28;4812850;29;114085;-71
2023/02/13 04:30:45;;;;;;;39.78;19.50;;;;;;;9.43;58.84;103620.53;4830083;29;123172;-72
2023/02/13 04:33:13;;;;;;;40.20;18.73;;;;;;;9.38;58.99;103622.31;4825009;29;123743;-71
2023/02/13 04:35:40;;;;;;;41.30;20.10;;;;;;;9.34;58.71;103632.00;4830771;29;115216;-71
2023/02/13 04:38:08;;;;;;;43.90;20.08;;;;;;;9.29;58.69;103627.56;4811661;29;114542;-71
2023/02/13 04:40:35;;;;;;;43.80;20.13;;;;;;;9.26;58.92;103627.53;4815035;29;123795;-72
2023/02/13 04:43:02;;;;;;;42.38;20.52;;;;;;;9.22;58.94;103625.75;4813565;29;125753;-73
2023/02/13 04:45:29;;;;;;;41.58;19.20;;;;;;;9.19;58.78;103620.44;4811718;29;114452;-73
2023/02/13 04:47:57;;;;;;;40.33;18.90;;;;;;;9.14;59.08;103617.78;4807001;29;115076;-72
2023/02/13 04:50:25;;;;;;;41.33;19.77;;;;;;;9.09;59.09;103620.38;4808872;29;125112;-71
2023/02/13 04:52:54;;;;;;;46.40;20.40;;;;;;;9.05;59.21;103613.31;4812509;29;123913;-71
2023/02/13 04:55:23;;;;;;;41.85;19.45;;;;;;;9.02;59.18;103607.97;4829796;29;115802;-71
2023/02/13 04:57:54;;;;;;;40.67;19.88;;;;;;;8.98;59.11;103611.50;4817603;29;115604;-71
2023/02/13 05:00:24;;;;;;;41.80;19.75;;;;;;;8.94;59.05;103607.94;4813079;29;124188;-75
2023/02/13 05:02:51;;;;;;;42.15;19.42;;;;;;;8.89;58.86;103598.22;4818791;29;123821;-72
2023/02/13 05:05:19;;;;;;;39.50;18.48;;;;;;;8.85;58.87;103604.34;4812262;29;114273;-72
2023/02/13 05:07:47;;;;;;;42.28;19.67;;;;;;;8.82;58.81;103599.06;4815069;29;113672;-72
2023/02/13 05:10:14;;;;;;;41.03;19.40;;;;;;;8.79;59.02;103604.31;4813259;29;124835;-72
2023/02/13 05:12:42;;;;;;;47.35;20.27;;;;;;;8.75;59.37;103592.84;4831210;29;124109;-72
2023/02/13 05:15:09;;;;;;;41.00;19.65;;;;;;;8.71;59.62;103607.78;4812546;29;114498;-72
2023/02/13 05:17:36;;;;;;;40.40;19.13;;;;;;;8.68;59.62;103602.50;4814838;29;114080;-72
2023/02/13 05:20:04;;;;;;;43.97;19.90;;;;;;;8.66;59.76;103609.50;4813375;29;124095;-72
2023/02/13 05:25:17;;;;;;;;;;;;;;;8.60;59.35;103606.81;4813843;29;115294;-72
2023/02/13 05:27:45;;;;;;;40.05;17.30;;;;;;;8.57;59.37;103604.19;4818102;29;113911;-72
2023/02/13 05:30:13;;;;;;;38.15;18.83;;;;;;;8.54;59.76;103598.84;4817078;29;124165;-72
2023/02/13 05:32:42;;;;;;;36.10;17.85;;;;;;;8.53;59.93;103603.28;4834900;29;123523;-72
2023/02/13 05:35:09;;;;;;;40.08;17.50;;;;;;;8.52;60.02;103595.31;4813029;29;114214;-72
2023/02/13 05:37:36;;;;;;;34.63;16.75;;;;;;;8.48;59.94;103593.53;4816660;29;114769;-72
2023/02/13 05:40:04;;;;;;;37.05;17.13;;;;;;;8.46;60.01;103597.94;4827967;29;123414;-71
2023/02/13 05:42:31;;;;;;;36.35;17.10;;;;;;;8.45;59.63;103593.50;4816995;29;123785;-71
2023/02/13 05:44:58;;;;;;;38.38;17.58;;;;;;;8.43;59.97;103595.25;4812139;29;115320;-72
2023/02/13 05:47:26;;;;;;;32.42;15.43;;;;;;;8.38;60.16;103592.53;4806116;29;115419;-71
2023/02/13 05:49:53;;;;;;;33.63;16.73;;;;;;;8.36;59.93;103584.59;4816155;29;123842;-72
2023/02/13 05:52:20;;;;;;;31.17;16.58;;;;;;;8.34;59.78;103589.00;4815463;29;123938;-71
2023/02/13 05:54:47;;;;;;;33.10;15.75;;;;;;;8.32;59.67;103590.72;4814447;29;114422;-72
2023/02/13 05:57:15;;;;;;;29.02;15.18;;;;;;;8.29;59.55;103582.78;4824873;29;114290;-71
2023/02/13 05:59:42;;;;;;;34.83;16.60;;;;;;;8.26;59.86;103582.75;4819348;29;123693;-75
2023/02/13 06:02:09;;;;;;;32.40;15.75;;;;;;;8.23;59.68;103588.00;4815294;29;123561;-72
2023/02/13 06:04:36;;;;;;;34.35;16.60;;;;;;;8.21;59.49;103589.72;4818523;29;115099;-71
2023/02/13 06:07:05;;;;;;;30.75;15.73;;;;;;;8.18;59.88;103600.28;4831966;29;111983;-71
2023/02/13 06:09:32;;;;;;;31.33;15.35;;;;;;;8.14;59.87;103595.84;4817035;29;122795;-71
2023/02/13 06:11:59;;;;;;;32.50;14.82;;;;;;;8.10;59.83;103597.56;4812803;29;124479;-71
2023/02/13 06:14:26;;;;;;;29.85;14.05;;;;;;;8.06;59.77;103597.50;4813280;29;114746;-72
2023/02/13 06:16:53;;;;;;;31.85;14.63;;;;;;;8.03;59.85;103597.50;4815239;29;113874;-71
2023/02/13 06:19:21;;;;;;;31.90;14.50;;;;;;;8.01;59.65;103596.59;4815321;29;124638;-72
2023/02/13 06:21:48;;;;;;;29.67;12.65;;;;;;;7.97;59.93;103590.41;4816865;29;124197;-72
2023/02/13 06:24:15;;;;;;;31.40;14.20;;;;;;;7.93;59.51;103594.75;4813339;29;114305;-72
2023/02/13 06:26:43;;;;;;;24.83;12.63;;;;;;;7.89;59.44;103592.06;4817241;29;114676;-72
2023/02/13 06:29:11;;;;;;;30.63;13.35;;;;;;;7.84;59.42;103599.94;4819368;29;123931;-72
2023/02/13 06:31:39;;;;;;;28.65;12.77;;;;;;;7.80;59.24;103595.50;4815932;29;123849;-72
2023/02/13 06:34:07;;;;;;;27.67;12.38;;;;;;;7.75;59.60;103597.19;4808761;29;115379;-75
2023/02/13 06:36:36;;;;;;;26.05;10.93;;;;;;;7.70;59.19;103596.25;4819345;29;115147;-72
2023/02/13 06:39:03;;;;;;;22.58;10.68;;;;;;;7.66;59.33;103599.72;4811405;29;124006;-73
2023/02/13 06:41:30;;;;;;;21.55;11.20;;;;;;;7.62;59.18;103597.94;4815818;29;124160;-72
2023/02/13 06:43:57;;;;;;;17.75;8.75;;;;;;;7.56;59.20;103599.63;4826096;29;114300;-72
2023/02/13 06:46:25;;;;;;;18.52;8.50;;;;;;;7.52;59.18;103597.81;4833617;29;113636;-72
2023/02/13 06:48:52;;;;;;;24.27;9.25;;;;;;;7.47;59.25;103599.50;4812878;29;124640;-72
2023/02/13 06:51:20;;;;;;;18.10;8.23;;;;;;;7.44;59.15;103599.47;4818580;29;123767;-72
2023/02/13 06:53:47;;;;;;;20.02;9.20;;;;;;;7.40;59.50;103608.19;4813457;29;115060;-72
2023/02/13 06:56:14;;;;;;;20.88;9.27;;;;;;;7.37;59.22;103602.91;4821712;29;113347;-73
2023/02/13 06:58:41;;;;;;;22.38;9.13;;;;;;;7.34;59.18;103608.13;4817489;29;123589;-72
2023/02/13 07:01:08;;;;;;;22.98;9.55;;;;;;;7.32;59.60;103609.84;4816814;29;124274;-72
2023/02/13 07:03:36;;;;;;;22.27;9.70;;;;;;;7.29;59.24;103609.81;4818739;29;114373;-73
2023/02/13 07:06:03;;;;;;;23.73;10.40;;;;;;;7.26;59.53;103612.41;4811145;29;114300;-73
2023/02/13 07:08:30;;;;;;;25.20;11.20;;;;;;;7.24;59.71;103606.25;4816135;29;124071;-73
2023/02/13 07:10:58;;;;;;;25.98;11.43;;;;;;;7.24;59.71;103611.50;4813036;29;124512;-72
2023/02/13 07:13:26;;;;;;;27.10;11.65;;;;;;;7.24;59.54;103616.78;4816575;29;113146;-73
2023/02/13 07:15:53;;;;;;;27.33;11.45;;;;;;;7.24;59.65;103616.78;4816881;29;114689;-72
2023/02/13 07:18:21;;;;;;;26.50;12.05;;;;;;;7.24;59.47;103622.06;4814471;29;123912;-74
2023/02/13 07:20:48;;;;;;;28.90;11.65;;;;;;;7.24;59.83;103632.59;4811669;29;122954;-72
2023/02/13 07:23:15;;;;;;;24.73;11.45;;;;;;;7.25;59.46;103629.09;4814689;29;115183;-72
2023/02/13 07:25:42;;;;;;;26.52;12.00;;;;;;;7.25;59.38;103635.22;4815626;29;115205;-73
2023/02/13 07:28:09;;;;;;;25.42;11.73;;;;;;;7.27;59.56;103637.88;4813969;29;124296;-71
2023/02/13 07:30:37;;;;;;;26.27;11.48;;;;;;;7.26;59.48;103636.13;4811486;29;123606;-72
2023/02/13 07:33:04;;;;;;;27.92;11.63;;;;;;;7.25;59.73;103639.63;4813646;29;115121;-72
2023/02/13 07:35:32;;;;;;;29.52;12.35;;;;;;;7.24;59.55;103641.38;4833948;29;114173;-72
2023/02/13 07:38:00;;;;;;;29.25;12.18;;;;;;;7.25;59.85;103634.34;4827827;29;124103;-72
2023/02/13 07:40:28;;;;;;;26.25;11.88;;;;;;;7.24;59.63;103632.59;4819044;29;124520;-72
2023/02/13 07:42:59;;;;;;;27.27;11.98;;;;;;;7.25;59.57;103640.50;4821611;29;114297;-72
2023/02/13 07:45:26;;;;;;;24.60;11.82;;;;;;;7.27;59.66;103649.34;4817867;29;114245;-73
2023/02/13 07:47:55;;;;;;;24.48;11.88;;;;;;;7.29;59.79;103641.44;4823433;29;123025;-72
2023/02/13 07:50:22;;;;;;;27.30;12.20;;;;;;;7.31;59.78;103643.25;4818612;29;123933;-73
2023/02/13 07:52:58;;;;;;;23.52;10.23;;;;;;;7.30;59.83;103638.81;4821191;29;115111;-72
2023/02/13 07:55:27;;;;;;;23.13;10.38;;;;;;;7.32;59.65;103642.38;4816959;29;113830;-72
2023/02/13 07:57:54;;;;;;;24.73;11.38;;;;;;;7.33;59.66;103638.00;4804530;29;123106;-73
2023/02/13 08:00:22;;;;;;;23.90;10.82;;;;;;;7.34;59.98;103639.75;4813167;29;124411;-73
2023/02/13 08:02:50;;;;;;;27.05;11.63;;;;;;;7.36;59.98;103644.16;4821356;29;114401;-72
2023/02/13 08:05:17;;;;;;;26.92;11.70;;;;;;;7.40;60.00;103639.81;4815697;29;113964;-71
2023/02/13 08:07:44;;;;;;;24.88;10.88;;;;;;;7.47;60.25;103646.97;4818634;29;124383;-71
2023/02/13 08:12:58;;;;;;;28.20;12.13;;;;;;;7.59;60.24;103646.22;4819477;29;114693;-71
2023/02/13 08:15:26;;;;;;;27.13;11.65;;;;;;;7.65;60.71;103648.06;4819101;29;115311;-71
2023/02/13 08:17:53;;;;;;;27.33;11.73;;;;;;;7.71;60.49;103640.25;4816790;29;124013;-71
2023/02/13 08:20:20;;;;;;;25.05;11.18;;;;;;;7.79;60.69;103649.13;4817562;29;124449;-71
2023/02/13 08:22:47;;;;;;;24.95;11.70;;;;;;;7.86;60.80;103645.69;4813064;29;114651;-71
2023/02/13 08:25:15;;;;;;;25.20;11.77;;;;;;;7.93;60.67;103647.53;4817993;29;114043;-72
2023/02/13 08:27:42;;;;;;;24.40;11.25;;;;;;;8.01;60.79;103654.66;4818659;29;123899;-71
2023/02/13 08:30:10;;;;;;;28.77;12.40;;;;;;;8.10;60.97;103649.44;4825102;29;123832;-72
2023/02/13 08:32:37;;;;;;;26.13;11.45;;;;;;;8.18;61.07;103655.72;4819827;29;114939;-71
2023/02/13 08:35:20;;;;;;;23.55;11.63;;;;;;;8.26;61.06;103661.94;4814307;29;114209;-72
2023/02/13 08:37:47;;;;;;;26.20;11.50;;;;;;;8.34;61.20;103670.84;4817080;29;124077;-71
2023/02/13 08:40:14;;;;;;;27.30;12.52;;;;;;;8.43;60.83;103669.19;4813058;29;124675;-71
2023/02/13 08:42:42;;;;;;;26.67;12.55;;;;;;;8.51;61.27;103672.78;4825343;29;114395;-71
2023/02/13 08:45:10;;;;;;;26.55;12.57;;;;;;;8.59;61.38;103671.13;4816056;29;114206;-71
2023/02/13 08:47:38;;;;;;;27.75;13.25;;;;;;;8.68;61.48;103671.19;4818746;29;122353;-71
2023/02/13 08:50:07;;;;;;;29.42;13.65;;;;;;;8.78;61.46;103672.16;4814938;29;123866;-71
2023/02/13 08:52:34;;;;;;;28.70;13.57;;;;;;;8.87;61.24;103672.22;4818049;29;113956;-71
2023/02/13 08:55:02;;;;;;;28.48;13.95;;;;;;;8.96;61.57;103666.09;4818221;29;114053;-72
2023/02/13 08:57:30;;;;;;;28.23;13.30;;;;;;;9.05;61.25;103671.47;4815657;29;124663;-71
2023/02/13 08:59:57;;;;;;;28.83;14.05;;;;;;;9.15;61.44;103673.31;4802313;29;123359;-71
2023/02/13 09:02:24;;;;;;;32.13;14.15;;;;;;;9.24;61.71;103668.94;4817909;29;115073;-71
2023/02/13 09:04:51;;;;;;;34.25;14.73;;;;;;;9.34;61.66;103662.81;4818134;29;114683;-71
2023/02/13 09:07:19;;;;;;;32.95;15.20;;;;;;;9.43;61.55;103668.16;4817024;29;123926;-71
2023/02/13 09:09:46;;;;;;;31.02;15.55;;;;;;;9.53;61.82;103662.06;4817036;29;124264;-75
2023/02/13 09:12:13;;;;;;;31.05;14.40;;;;;;;9.64;61.88;103661.22;4819346;29;114161;-77
2023/02/13 09:14:40;;;;;;;30.48;15.20;;;;;;;9.72;61.70;103659.50;4817181;29;114144;-71
2023/02/13 09:17:08;;;;;;;28.50;14.52;;;;;;;9.82;62.11;103663.94;4817132;29;124105;-71
2023/02/13 09:19:35;;;;;;;33.15;15.88;;;;;;;9.91;61.49;103671.91;4819199;29;123796;-71
2023/02/13 09:22:02;;;;;;;29.67;13.73;;;;;;;10.03;61.80;103670.19;4818441;29;114315;-71
2023/02/13 09:24:29;;;;;;;32.08;14.93;;;;;;;10.14;61.79;103679.03;4817076;29;114081;-71
2023/02/13 09:26:57;;;;;;;33.47;14.70;;;;;;;10.24;61.67;103667.56;4817404;29;124305;-71
2023/02/13 09:29:29;;;;;;;33.72;14.40;;;;;;;10.35;61.93;103666.75;4833200;29;123289;-71
2023/02/13 09:31:56;;;;;;;31.38;14.05;;;;;;;10.46;61.64;103670.28;4817860;29;114516;-71
2023/02/13 09:34:23;;;;;;;31.42;14.18;;;;;;;10.55;61.55;103675.59;4816377;29;113892;-71
2023/02/13 09:36:53;;;;;;;27.48;13.85;;;;;;;10.64;61.49;103670.31;4817889;29;124074;-71
2023/02/13 09:39:22;;;;;;;27.65;13.40;;;;;;;10.71;61.27;103666.75;4817137;29;123002;-71
2023/02/13 09:41:52;;;;;;;32.70;13.32;;;;;;;10.78;61.54;103672.94;4817416;29;115072;-71
2023/02/13 09:44:33;;;;;;;29.98;13.70;;;;;;;10.87;61.07;103669.44;4815943;29;114297;-71
2023/02/13 09:47:27;;;;;;;26.77;12.93;;;;;;;10.96;61.18;103672.03;4816132;29;124165;-72
2023/02/13 09:50:01;;;;;;;27.17;12.98;;;;;;;11.01;60.93;103675.56;4819556;29;123737;-71
2023/02/13 09:52:34;;;;;;;25.83;12.93;;;;;;;11.07;61.13;103675.56;4818018;29;115238;-71
2023/02/13 09:55:12;;;;;;;27.02;13.10;;;;;;;11.16;60.90;103673.81;4817009;29;115320;-71
2023/02/13 09:57:56;;;;;;;26.67;13.40;;;;;;;11.24;60.80;103672.00;4818472;29;123700;-72
2023/02/13 10:00:32;;;;;;;26.42;12.88;;;;;;;11.31;60.74;103668.44;4823254;29;123798;-72
2023/02/13 10:03:00;;;;;;;23.70;11.45;;;;;;;11.39;60.74;103660.47;4823998;29;113672;-72
2023/02/13 10:05:56;;;;;;;24.98;12.50;;;;;;;11.46;60.56;103668.41;4810039;29;114778;-72
2023/02/13 10:08:35;;;;;;;24.73;12.38;;;;;;;11.54;60.53;103667.50;4808149;29;124053;-75
2023/02/13 10:11:24;;;;;;;24.88;12.73;;;;;;;11.60;60.44;103664.81;4817607;29;124171;-76
2023/02/13 10:13:57;;;;;;;24.50;12.52;;;;;;;11.65;60.38;103663.03;4811282;29;115208;-75
2023/02/13 10:16:32;;;;;;;24.75;13.70;;;;;;;11.71;60.23;103663.00;4815378;29;115656;-75
2023/02/13 10:19:17;;;;;;;26.27;13.65;;;;;;;11.79;60.22;103666.53;4812049;29;126660;-75
2023/02/13 10:21:58;;;;;;;27.27;13.38;;;;;;;11.87;60.23;103659.38;4815801;29;124009;-76
2023/02/13 10:24:32;;;;;;;26.45;13.85;;;;;;;11.97;60.08;103664.69;4813498;29;114098;-75
2023/02/13 10:27:17;;;;;;;26.65;13.27;;;;;;;12.05;60.25;103668.16;4816800;29;114151;-72
2023/02/13 10:30:08;;;;;;;27.55;13.48;;;;;;;12.16;59.90;103665.47;4828915;29;123072;-71
2023/02/13 10:33:20;;;;;;;24.35;12.73;;;;;;;12.23;59.84;103668.06;4814597;29;123932;-71
2023/02/13 10:36:08;;;;;;;25.80;12.65;;;;;;;12.31;59.89;103664.47;4811833;29;115066;-71
2023/02/13 10:38:54;;;;;;;23.05;12.10;;;;;;;12.39;59.66;103665.28;4814737;29;114063;-71
2023/02/13 10:41:23;;;;;;;25.88;12.98;;;;;;;12.46;59.63;103659.03;4813214;29;124367;-71
2023/02/13 10:44:28;;;;;;;22.85;12.85;;;;;;;12.57;59.56;103661.63;4816844;29;124635;-71
2023/02/13 10:47:16;;;;;;;28.08;13.18;;;;;;;12.66;59.58;103653.56;4810205;29;115168;-71
2023/02/13 10:49:59;;;;;;;23.77;12.52;;;;;;;12.75;59.25;103656.16;4817196;29;115204;-71
2023/02/13 10:52:41;;;;;;;23.25;12.50;;;;;;;12.83;59.26;103653.44;4817576;29;123717;-71
2023/02/13 10:55:47;;;;;;;22.77;12.15;;;;;;;12.91;58.68;103656.88;4811454;29;124051;-72
2023/02/13 10:59:08;;;;;;;24.33;12.77;;;;;;;12.99;58.86;103647.03;4805775;29;114102;-71
2023/02/13 11:01:56;;;;;;;25.80;13.75;;;;;;;13.05;58.67;103649.66;4797443;29;113326;-71
2023/02/13 11:04:24;;;;;;;25.95;12.88;;;;;;;13.11;58.62;103642.47;4812390;29;124261;-74
2023/02/13 11:06:56;;;;;;;23.05;12.40;;;;;;;13.16;58.46;103641.53;4815758;29;124250;-73
2023/02/13 11:09:25;;;;;;;24.55;12.68;;;;;;;13.23;58.55;103637.03;4816425;29;114302;-73
2023/02/13 11:11:52;;;;;;;22.30;11.93;;;;;;;13.30;58.27;103635.19;4814594;29;113924;-73
2023/02/13 11:14:25;;;;;;;21.65;11.65;;;;;;;13.38;58.15;103626.25;4818385;29;124157;-74
2023/02/13 11:17:01;;;;;;;25.35;13.05;;;;;;;13.48;58.09;103626.13;4830328;29;122775;-73
2023/02/13 11:19:54;;;;;;;23.33;13.00;;;;;;;13.56;57.86;103624.25;4817141;29;114242;-73
2023/02/13 11:22:32;;;;;;;25.77;13.68;;;;;;;13.64;57.95;103627.72;4818158;29;114431;-73
2023/02/13 11:25:07;;;;;;;21.88;12.38;;;;;;;13.72;57.79;103620.47;4820015;29;124150;-74
2023/02/13 11:27:38;;;;;;;26.65;13.10;;;;;;;13.79;57.87;103611.50;4816069;29;122852;-75
2023/02/13 11:30:30;;;;;;;21.88;11.77;;;;;;;13.88;57.66;103604.28;4814935;29;114927;-75
2023/02/13 11:33:00;;;;;;;22.55;12.73;;;;;;;13.97;57.49;103604.16;4821789;29;114260;-75
2023/02/13 11:35:31;;;;;;;25.08;13.32;;;;;;;14.05;57.41;103604.91;4808941;29;124275;-75
2023/02/13 11:38:14;;;;;;;23.70;13.18;;;;;;;14.11;57.12;103602.16;4819605;29;123958;-75
2023/02/13 11:40:46;;;;;;;21.50;12.38;;;;;;;14.16;57.24;103594.94;4824570;29;114994;-75
2023/02/13 11:43:35;;;;;;;23.30;12.82;;;;;;;14.23;57.13;103590.41;4819453;29;114764;-74
2023/02/13 11:46:14;;;;;;;23.52;12.98;;;;;;;14.32;56.88;103589.41;4803179;29;123692;-73
2023/02/13 11:48:54;;;;;;;23.08;12.70;;;;;;;14.38;56.67;103589.28;4831352;29;123986;-75
2023/02/13 11:51:38;;;;;;;23.75;13.20;;;;;;;14.42;56.62;103585.66;4816000;29;114281;-73
2023/02/13 11:54:18;;;;;;;25.63;13.45;;;;;;;14.47;56.35;103583.78;4819089;29;114124;-74
2023/02/13 11:56:52;;;;;;;23.17;12.40;;;;;;;14.51;56.45;103582.81;4804409;29;123196;-73
2023/02/13 11:59:40;;;;;;;23.23;12.15;;;;;;;14.55;56.05;103586.31;4806593;29;124414;-74
2023/02/13 12:02:14;;;;;;;19.83;12.07;;;;;;;14.58;56.18;103581.84;4814121;29;114560;-73
2023/02/13 12:04:42;;;;;;;24.25;13.20;;;;;;;14.66;56.14;103578.16;4809957;29;114576;-73
2023/02/13 12:07:20;;;;;;;20.33;12.13;;;;;;;14.75;56.04;103575.34;4805254;29;124178;-73
2023/02/13 12:09:53;;;;;;;21.40;12.35;;;;;;;14.82;55.79;103579.63;4812252;29;123043;-74
2023/02/13 12:12:27;;;;;;;21.02;12.02;;;;;;;14.88;55.71;103579.53;4815394;29;114429;-74
2023/02/13 12:14:55;;;;;;;23.15;14.27;;;;;;;14.95;55.55;103581.13;4811543;29;113963;-74